Terminal Aerodrome Forecast
Issued by NWS

Home | Current Version | Previous Version | Text Only | Print | Product List | Glossary On
Versions: 1 2 3 4 5 6 7 8 9 10 11 12 13 14 15
000
FTAK31 PANC 191730
TAFACD
TAF
PACD 191730Z 1918/2018 20012KT P6SM -SHSN SCT020 OVC035
     FM192200 24015G25KT P6SM -SHSN SCT030 BKN050
     FM201500 30015G25KT 6SM -SHSN BKN035=

USA.gov is the U.S. government's official web portal to all federal, state and local government web resources and services.